Time;durP1;ratioP1;P1;durP2;ratioP2;P2;SDS_P1;SDS_P2;PMS_P1;PMS_P2;Temp;Humidity;BMP_temperature;BMP_pressure;BME280_temperature;BME280_humidity;BME280_pressure;Samples;Min_cycle;Max_cycle;Signal;HPM_P1;HPM_P2
2022/06/25 00:01:03;;;;;;;16.05;9.10;;;18.90;99.90;;;;;;5074619;28;20024;-53
2022/06/25 00:03:29;;;;;;;10.65;8.40;;;18.90;99.90;;;;;;5074559;28;20024;-53
2022/06/25 00:05:55;;;;;;;13.18;8.63;;;18.90;99.90;;;;;;5074790;28;20040;-53
2022/06/25 00:08:21;;;;;;;12.13;8.90;;;18.90;99.90;;;;;;5074377;28;20029;-53
2022/06/25 00:10:47;;;;;;;10.55;8.35;;;18.90;99.90;;;;;;5074657;28;20028;-53
2022/06/25 00:13:13;;;;;;;14.23;8.68;;;18.90;99.90;;;;;;5074524;28;20032;-53
2022/06/25 00:15:38;;;;;;;10.27;8.82;;;18.90;99.90;;;;;;5074610;28;20028;-53
2022/06/25 00:18:04;;;;;;;11.55;8.65;;;18.90;99.90;;;;;;5074528;28;20103;-53
2022/06/25 00:20:31;;;;;;;12.57;8.38;;;18.90;99.90;;;;;;5074540;28;20024;-53
2022/06/25 00:22:56;;;;;;;13.32;9.13;;;18.80;99.90;;;;;;5074414;28;20112;-53
2022/06/25 00:25:22;;;;;;;12.32;8.93;;;18.90;99.90;;;;;;5074396;28;20455;-53
2022/06/25 00:27:48;;;;;;;11.68;8.23;;;18.80;99.90;;;;;;5074886;28;20028;-53
2022/06/25 00:30:14;;;;;;;13.55;8.70;;;18.70;99.90;;;;;;5074517;28;20098;-53
2022/06/25 00:32:40;;;;;;;11.05;8.75;;;18.60;99.90;;;;;;5074427;28;20024;-53
2022/06/25 00:35:06;;;;;;;16.23;9.40;;;18.70;99.90;;;;;;5074588;28;20462;-53
2022/06/25 00:37:32;;;;;;;15.88;8.60;;;18.70;99.90;;;;;;5074414;28;20052;-53
2022/06/25 00:39:58;;;;;;;15.20;8.68;;;18.80;99.90;;;;;;5074330;28;20029;-53
2022/06/25 00:42:24;;;;;;;13.00;8.18;;;18.80;99.90;;;;;;5074558;28;20036;-53
2022/06/25 00:44:53;;;;;;;11.65;8.35;;;18.80;99.90;;;;;;5074331;28;20059;-53
2022/06/25 00:47:19;;;;;;;20.67;9.90;;;18.80;99.90;;;;;;5074361;28;20108;-53
2022/06/25 00:49:45;;;;;;;12.63;8.95;;;18.80;99.90;;;;;;5074567;28;20031;-53
2022/06/25 00:52:13;;;;;;;14.48;8.73;;;18.90;99.90;;;;;;5074210;28;20036;-53
2022/06/25 00:54:45;;;;;;;15.23;8.25;;;18.90;99.90;;;;;;5074021;28;20072;-53
2022/06/25 00:57:16;;;;;;;14.80;9.20;;;18.90;99.90;;;;;;5073005;28;20458;-53
2022/06/25 00:59:44;;;;;;;15.45;8.93;;;18.90;99.90;;;;;;5074086;28;20032;-53
2022/06/25 01:02:10;;;;;;;14.00;9.00;;;18.90;99.90;;;;;;5074342;28;20104;-53
2022/06/25 01:04:37;;;;;;;16.02;8.88;;;18.90;99.90;;;;;;5074331;28;20029;-53
2022/06/25 01:07:04;;;;;;;16.70;8.43;;;18.90;99.90;;;;;;5072861;28;20442;-53
2022/06/25 01:09:30;;;;;;;12.23;9.45;;;19.00;99.90;;;;;;5074045;28;20028;-53
2022/06/25 01:11:56;;;;;;;15.38;8.30;;;18.90;99.90;;;;;;5074130;28;20112;-53
2022/06/25 01:14:22;;;;;;;16.90;8.18;;;18.90;99.90;;;;;;5073924;28;20116;-53
2022/06/25 01:16:48;;;;;;;10.07;7.85;;;18.80;99.90;;;;;;5072812;28;20055;-53
2022/06/25 01:19:15;;;;;;;10.65;7.88;;;18.90;99.90;;;;;;5073224;28;20428;-53
2022/06/25 01:21:42;;;;;;;12.07;9.23;;;18.80;99.90;;;;;;5077780;28;20085;-53
2022/06/25 01:24:08;;;;;;;16.67;8.45;;;18.80;99.90;;;;;;5076405;28;20025;-53
2022/06/25 01:26:35;;;;;;;12.05;8.80;;;18.80;99.90;;;;;;5077819;28;20043;-53
2022/06/25 01:29:03;;;;;;;13.48;8.95;;;18.80;99.90;;;;;;5077499;28;20025;-53
2022/06/25 01:31:29;;;;;;;14.43;9.18;;;18.80;99.90;;;;;;5076366;28;20028;-53
2022/06/25 01:33:56;;;;;;;14.15;9.05;;;18.80;99.90;;;;;;5093099;28;20363;-53
2022/06/25 01:36:22;;;;;;;14.40;9.35;;;18.80;99.90;;;;;;5077606;28;20179;-53
2022/06/25 01:38:48;;;;;;;13.63;8.98;;;18.80;99.90;;;;;;5077498;28;20025;-53
2022/06/25 01:41:14;;;;;;;13.32;8.70;;;18.60;99.90;;;;;;5076206;28;20033;-53
2022/06/25 01:43:40;;;;;;;18.83;10.07;;;18.60;99.90;;;;;;5076121;28;20497;-53
2022/06/25 01:46:08;;;;;;;18.58;9.85;;;18.60;99.90;;;;;;5077470;28;20025;-53
2022/06/25 01:48:34;;;;;;;11.25;8.70;;;18.60;99.90;;;;;;5076002;28;20032;-53
2022/06/25 01:51:01;;;;;;;12.45;8.80;;;18.50;99.90;;;;;;5077232;28;20025;-53
2022/06/25 01:53:29;;;;;;;16.80;9.15;;;18.50;99.90;;;;;;5075579;28;20048;-53
2022/06/25 01:55:56;;;;;;;12.27;8.38;;;18.50;99.90;;;;;;5074621;28;20043;-53
2022/06/25 01:58:23;;;;;;;11.68;8.40;;;18.40;99.90;;;;;;5091660;28;20081;-53
2022/06/25 02:00:50;;;;;;;13.80;8.10;;;18.30;99.90;;;;;;5074675;28;20032;-53
2022/06/25 02:03:16;;;;;;;12.80;9.10;;;18.30;99.90;;;;;;5075747;28;20032;-53
2022/06/25 02:05:58;;;;;;;17.02;9.02;;;18.30;99.90;;;;;;5074600;28;20039;-53
2022/06/25 02:08:32;;;;;;;;;;;18.20;99.90;;;;;;5075057;28;20085;-53
2022/06/25 02:10:59;;;;;;;11.18;7.97;;;18.20;99.90;;;;;;5075773;28;19909;-53
2022/06/25 02:13:26;;;;;;;17.15;8.85;;;18.10;99.90;;;;;;5074403;28;20058;-54
2022/06/25 02:15:53;;;;;;;17.30;10.55;;;18.10;99.90;;;;;;5075743;28;20032;-53
2022/06/25 02:18:19;;;;;;;19.00;9.80;;;18.20;99.90;;;;;;5075733;28;20056;-53
2022/06/25 02:20:45;;;;;;;14.35;9.25;;;18.20;99.90;;;;;;5075681;28;20571;-53
2022/06/25 02:23:12;;;;;;;16.63;9.23;;;18.10;99.90;;;;;;5074385;28;20025;-53
2022/06/25 02:25:38;;;;;;;12.05;8.48;;;18.10;99.90;;;;;;5074208;28;20033;-53
2022/06/25 02:28:05;;;;;;;15.57;9.45;;;18.10;99.90;;;;;;5074283;28;20029;-53
2022/06/25 02:30:32;;;;;;;9.80;8.07;;;18.10;99.90;;;;;;5075345;28;20029;-53
2022/06/25 02:33:01;;;;;;;14.15;8.93;;;18.10;99.90;;;;;;5075347;28;20131;-53
2022/06/25 02:35:28;;;;;;;12.50;9.02;;;18.10;99.90;;;;;;5075401;28;20064;-53
2022/06/25 02:37:54;;;;;;;14.40;8.95;;;18.10;99.90;;;;;;5075490;28;20478;-53
2022/06/25 02:40:24;;;;;;;10.82;8.68;;;18.00;99.90;;;;;;5073874;28;20024;-53
2022/06/25 02:42:50;;;;;;;12.80;8.73;;;18.00;99.90;;;;;;5073992;28;20032;-53
2022/06/25 02:45:16;;;;;;;15.02;9.27;;;18.00;99.90;;;;;;5074043;28;20058;-53
2022/06/25 02:47:47;;;;;;;15.35;9.68;;;17.90;99.90;;;;;;5073996;28;20567;-53
2022/06/25 02:50:13;;;;;;;13.60;9.20;;;18.00;99.90;;;;;;5073849;28;20040;-53
2022/06/25 02:52:41;;;;;;;15.18;9.85;;;17.90;99.90;;;;;;5073871;28;20028;-53
2022/06/25 02:55:12;;;;;;;12.60;9.43;;;17.90;99.90;;;;;;5031353;28;1234509;-53
2022/06/25 03:00:40;;;;;;;15.10;9.80;;;17.80;99.90;;;;;;5074569;28;20474;-53
2022/06/25 03:03:07;;;;;;;12.02;9.07;;;17.90;99.90;;;;;;5074607;28;20035;-53
2022/06/25 03:05:33;;;;;;;14.70;9.77;;;18.00;99.90;;;;;;5074861;28;20032;-53
2022/06/25 03:07:59;;;;;;;13.55;9.40;;;17.90;99.90;;;;;;5074441;28;20386;-53
2022/06/25 03:10:26;;;;;;;16.17;10.38;;;18.00;99.90;;;;;;5091476;28;20115;-53
2022/06/25 03:12:52;;;;;;;14.82;10.82;;;18.10;99.90;;;;;;5074526;28;20033;-53
2022/06/25 03:15:23;;;;;;;13.32;9.40;;;18.00;99.90;;;;;;5074297;28;20042;-53
2022/06/25 03:17:49;;;;;;;18.63;10.55;;;18.00;99.90;;;;;;5074336;28;20024;-53
2022/06/25 03:20:34;;;;;;;13.75;9.55;;;17.90;99.90;;;;;;5075624;28;20040;-53
2022/06/25 03:23:02;;;;;;;13.75;10.15;;;17.90;99.90;;;;;;5074262;28;20074;-53
2022/06/25 03:25:29;;;;;;;15.23;10.27;;;17.90;99.90;;;;;;5074000;28;20124;-53
2022/06/25 03:27:59;;;;;;;17.17;10.60;;;17.90;99.90;;;;;;5074037;28;20028;-53
2022/06/25 03:30:26;;;;;;;17.92;10.13;;;17.80;99.90;;;;;;5073974;28;20041;-53
2022/06/25 03:32:52;;;;;;;13.80;9.77;;;17.80;99.90;;;;;;5074107;28;20032;-53
2022/06/25 03:35:34;;;;;;;14.48;10.73;;;17.80;99.90;;;;;;5073876;28;20036;-53
2022/06/25 03:38:09;;;;;;;13.00;10.18;;;17.90;99.90;;;;;;5073795;28;20504;-53
2022/06/25 03:40:35;;;;;;;15.30;10.30;;;17.90;99.90;;;;;;5073969;28;20051;-53
2022/06/25 03:43:02;;;;;;;15.77;10.38;;;17.90;99.90;;;;;;5073072;28;20029;-54
2022/06/25 03:45:32;;;;;;;13.75;10.68;;;17.90;99.90;;;;;;5073950;28;20040;-54
2022/06/25 03:47:59;;;;;;;15.38;10.20;;;18.00;99.90;;;;;;5073698;28;20063;-53
2022/06/25 03:50:25;;;;;;;13.95;10.05;;;18.00;99.90;;;;;;5073637;28;20500;-53
2022/06/25 03:52:51;;;;;;;17.38;10.55;;;18.00;99.90;;;;;;5073611;28;20086;-53
2022/06/25 03:55:18;;;;;;;17.13;10.77;;;18.10;99.90;;;;;;5073479;28;20044;-53
2022/06/25 03:57:44;;;;;;;18.30;10.43;;;18.10;99.90;;;;;;5073513;28;20024;-53
2022/06/25 04:00:18;;;;;;;21.85;11.30;;;18.20;99.90;;;;;;5073651;28;20033;-53
2022/06/25 04:02:55;;;;;;;21.95;11.65;;;18.30;99.90;;;;;;5073635;28;20352;-53
2022/06/25 04:05:27;;;;;;;28.02;12.57;;;18.30;99.90;;;;;;5075296;28;20394;-53
2022/06/25 04:07:56;;;;;;;15.43;9.68;;;18.40;99.90;;;;;;5073518;28;20042;-53
2022/06/25 04:10:22;;;;;;;11.88;9.50;;;18.50;99.90;;;;;;5073485;28;20059;-53
2022/06/25 04:12:48;;;;;;;16.35;10.48;;;18.50;99.90;;;;;;5074775;28;20033;-53
2022/06/25 04:15:15;;;;;;;17.98;10.73;;;18.60;99.90;;;;;;5073264;28;20029;-53
2022/06/25 04:17:42;;;;;;;16.52;9.80;;;18.60;99.90;;;;;;5073296;28;20033;-53
2022/06/25 04:20:10;;;;;;;12.57;9.00;;;18.60;99.90;;;;;;5073369;28;20028;-53
2022/06/25 04:22:37;;;;;;;14.52;9.48;;;18.60;99.90;;;;;;5073263;28;20028;-53
2022/06/25 04:25:04;;;;;;;14.23;10.50;;;18.60;99.90;;;;;;5073212;28;20056;-53
2022/06/25 04:30:15;;;;;;;15.82;10.68;;;18.80;99.90;;;;;;5073110;28;20078;-54
2022/06/25 04:32:45;;;;;;;20.65;11.98;;;18.80;99.90;;;;;;5073127;28;20469;-54
2022/06/25 04:35:15;;;;;;;18.83;10.55;;;18.90;99.90;;;;;;5074431;28;20086;-54
2022/06/25 04:37:43;;;;;;;15.02;10.73;;;19.00;99.90;;;;;;5073047;28;20040;-53
2022/06/25 04:40:11;;;;;;;19.90;11.57;;;19.00;99.90;;;;;;5073119;28;20035;-54
2022/06/25 04:42:38;;;;;;;17.38;11.43;;;19.10;99.90;;;;;;5073037;28;20028;-54
2022/06/25 04:45:05;;;;;;;12.85;10.77;;;19.20;99.90;;;;;;5073122;28;20028;-54
2022/06/25 04:47:38;;;;;;;15.60;10.98;;;19.20;99.90;;;;;;5072921;28;20040;-54
2022/06/25 04:50:30;;;;;;;20.88;10.25;;;19.30;99.90;;;;;;5073966;28;20508;-54
2022/06/25 04:52:56;;;;;;;16.58;9.75;;;19.40;99.90;;;;;;5072847;28;20328;-54
2022/06/25 04:55:22;;;;;;;17.50;10.98;;;19.50;99.90;;;;;;5076890;28;20032;-54
2022/06/25 04:57:48;;;;;;;19.52;11.63;;;19.60;99.90;;;;;;5077031;28;20028;-53
2022/06/25 05:00:34;;;;;;;19.02;12.00;;;19.70;99.90;;;;;;5067336;28;20028;-54
2022/06/25 05:03:00;;;;;;;20.33;11.52;;;19.90;99.90;;;;;;5076853;28;20116;-54
2022/06/25 05:05:26;;;;;;;28.55;12.68;;;20.10;99.90;;;;;;5076879;28;20044;-54
2022/06/25 05:07:53;;;;;;;19.55;12.20;;;20.20;99.90;;;;;;5076766;28;20028;-54
2022/06/25 05:10:19;;;;;;;22.15;12.68;;;20.20;99.90;;;;;;5076661;28;20039;-53
2022/06/25 05:15:29;;;;;;;17.45;12.68;;;20.60;99.90;;;;;;5076548;28;20032;-54
2022/06/25 05:17:55;;;;;;;19.02;11.98;;;20.80;99.90;;;;;;5076644;28;20031;-54
2022/06/25 05:20:22;;;;;;;19.73;12.57;;;20.80;99.90;;;;;;5076579;28;20433;-54
2022/06/25 05:22:48;;;;;;;20.65;11.70;;;20.90;99.90;;;;;;5076573;28;20031;-54
2022/06/25 05:25:15;;;;;;;19.40;12.82;;;21.00;99.90;;;;;;5076279;28;20039;-54
2022/06/25 05:27:41;;;;;;;20.27;12.30;;;21.30;99.90;;;;;;5076281;28;20032;-54
2022/06/25 05:30:07;;;;;;;23.65;13.48;;;21.30;99.90;;;;;;5076534;28;20574;-54
2022/06/25 05:32:34;;;;;;;20.05;12.00;;;21.50;99.90;;;;;;5076347;28;20557;-54
2022/06/25 05:35:00;;;;;;;17.63;11.65;;;21.60;99.90;;;;;;5076185;28;20158;-54
2022/06/25 05:37:26;;;;;;;22.35;11.90;;;21.70;99.90;;;;;;5076109;28;20063;-54
2022/06/25 05:39:52;;;;;;;17.02;12.38;;;21.80;99.90;;;;;;5077381;28;20024;-54
2022/06/25 05:42:20;;;;;;;28.67;14.55;;;22.00;99.90;;;;;;5077388;28;20074;-54
2022/06/25 05:44:47;;;;;;;24.10;12.10;;;22.10;99.90;;;;;;5077400;28;20077;-54
2022/06/25 05:47:12;;;;;;;21.85;12.00;;;22.20;99.90;;;;;;5077253;28;20028;-54
2022/06/25 05:49:38;;;;;;;19.05;11.32;;;22.30;99.90;;;;;;5077199;28;20099;-54
2022/06/25 05:52:05;;;;;;;32.35;12.68;;;22.40;99.90;;;;;;5077348;28;20029;-54
2022/06/25 05:54:31;;;;;;;25.52;12.20;;;22.40;99.90;;;;;;5076943;28;20036;-54
2022/06/25 05:56:56;;;;;;;18.92;11.05;;;22.40;99.90;;;;;;5077130;28;20197;-54
2022/06/25 05:59:22;;;;;;;19.98;10.90;;;22.60;99.90;;;;;;5077231;28;20025;-54
2022/06/25 06:01:48;;;;;;;21.90;10.55;;;22.70;99.90;;;;;;5077098;28;20028;-54
2022/06/25 06:04:14;;;;;;;20.17;10.70;;;22.80;99.90;;;;;;5075696;28;20028;-54
2022/06/25 06:06:40;;;;;;;17.17;10.38;;;23.00;99.90;;;;;;5076270;28;20470;-54
2022/06/25 06:09:06;;;;;;;17.92;10.30;;;23.10;99.90;;;;;;5076998;28;20474;-54
2022/06/25 06:11:32;;;;;;;14.73;9.73;;;23.30;99.90;;;;;;5076947;28;20032;-54
2022/06/25 06:13:58;;;;;;;20.40;10.55;;;23.50;99.90;;;;;;5076718;28;20037;-54
2022/06/25 06:16:23;;;;;;;22.02;10.82;;;23.70;99.90;;;;;;5076694;28;20052;-54
2022/06/25 06:18:49;;;;;;;21.80;9.63;;;23.80;99.90;;;;;;5076751;28;20109;-54
2022/06/25 06:21:15;;;;;;;20.52;9.63;;;24.00;99.90;;;;;;5076942;28;20033;-54
2022/06/25 06:23:41;;;;;;;21.92;9.38;;;24.10;99.90;;;;;;5076647;28;20386;-54
2022/06/25 06:26:07;;;;;;;19.73;8.35;;;24.20;99.90;;;;;;5076577;28;20032;-54
2022/06/25 06:28:33;;;;;;;29.00;9.65;;;24.30;99.90;;;;;;5076665;28;20028;-54
2022/06/25 06:30:59;;;;;;;24.30;9.90;;;24.40;99.90;;;;;;5076546;28;20390;-54
2022/06/25 06:33:24;;;;;;;32.78;10.90;;;24.50;99.90;;;;;;5076574;28;20124;-54
2022/06/25 06:35:50;;;;;;;31.65;10.30;;;24.70;99.90;;;;;;5076322;28;20029;-54
2022/06/25 06:38:16;;;;;;;26.30;10.70;;;24.90;99.90;;;;;;5076316;28;20036;-54
2022/06/25 06:40:42;;;;;;;31.35;12.23;;;25.10;99.90;;;;;;5076304;28;20047;-54
2022/06/25 06:43:08;;;;;;;33.47;10.98;;;25.20;99.00;;;;;;5076336;28;20382;-54
2022/06/25 06:45:34;;;;;;;31.75;11.93;;;25.30;99.50;;;;;;5076430;28;20037;-54
2022/06/25 06:48:00;;;;;;;30.08;10.90;;;25.40;97.70;;;;;;5076252;28;20040;-54
2022/06/25 06:50:26;;;;;;;31.88;9.68;;;25.40;97.20;;;;;;5076012;28;20033;-54
2022/06/25 06:52:52;;;;;;;31.17;9.73;;;25.50;98.90;;;;;;5076072;28;20024;-54
2022/06/25 06:55:18;;;;;;;26.52;8.93;;;25.60;97.00;;;;;;5075945;28;20053;-54
2022/06/25 06:57:43;;;;;;;22.17;8.80;;;25.70;93.90;;;;;;5076068;28;20028;-54
2022/06/25 07:00:10;;;;;;;28.13;8.40;;;26.00;95.30;;;;;;5075763;28;20056;-54
2022/06/25 07:02:36;;;;;;;24.80;8.65;;;26.10;91.10;;;;;;5076025;28;20021;-54
2022/06/25 07:05:02;;;;;;;38.30;10.13;;;26.10;91.50;;;;;;5076084;28;20322;-54
2022/06/25 07:07:28;;;;;;;40.63;10.07;;;26.40;90.30;;;;;;5075875;28;20440;-54
2022/06/25 07:09:54;;;;;;;38.30;9.85;;;26.60;84.50;;;;;;5075910;28;20039;-54
2022/06/25 07:12:19;;;;;;;38.70;9.73;;;26.80;84.10;;;;;;5075636;28;20033;-54
2022/06/25 07:14:45;;;;;;;41.40;11.57;;;27.00;74.80;;;;;;5075597;28;20115;-54
2022/06/25 07:17:11;;;;;;;34.63;9.88;;;27.20;76.40;;;;;;5074722;28;20036;-54
2022/06/25 07:19:37;;;;;;;29.80;8.77;;;27.50;75.80;;;;;;5075558;28;20107;-54
2022/06/25 07:22:03;;;;;;;43.55;10.82;;;27.80;74.20;;;;;;5075586;28;20039;-54
2022/06/25 07:24:29;;;;;;;41.13;10.73;;;28.10;74.60;;;;;;5075726;28;20044;-54
2022/06/25 07:26:55;;;;;;;42.00;10.65;;;28.40;69.00;;;;;;5074260;28;20025;-54
2022/06/25 07:29:21;;;;;;;24.80;8.05;;;28.50;65.90;;;;;;5075420;28;20029;-55
2022/06/25 07:31:47;;;;;;;31.67;8.82;;;28.50;67.50;;;;;;5075674;28;20041;-54
2022/06/25 07:34:12;;;;;;;28.33;8.48;;;28.80;66.30;;;;;;5075257;28;20028;-55
2022/06/25 07:36:38;;;;;;;26.38;8.02;;;28.90;69.40;;;;;;5074021;28;20036;-54
2022/06/25 07:39:04;;;;;;;30.85;9.07;;;29.30;69.30;;;;;;5075231;28;20020;-54
2022/06/25 07:41:30;;;;;;;26.35;8.88;;;29.70;65.50;;;;;;5075097;28;20036;-54
2022/06/25 07:43:57;;;;;;;20.42;7.43;;;30.20;62.90;;;;;;5075076;28;20032;-54
2022/06/25 07:46:23;;;;;;;17.83;6.97;;;30.40;58.30;;;;;;5075129;28;20029;-54
2022/06/25 07:48:48;;;;;;;18.98;6.68;;;30.20;60.10;;;;;;5074941;28;20024;-54
2022/06/25 07:53:59;;;;;;;17.42;6.28;;;30.10;59.10;;;;;;5074831;28;20069;-54
2022/06/25 07:56:25;;;;;;;31.88;8.27;;;29.90;59.80;;;;;;5074829;28;20501;-54
2022/06/25 07:58:51;;;;;;;24.08;7.78;;;29.90;59.00;;;;;;5074991;28;20043;-54
2022/06/25 08:01:17;;;;;;;24.63;7.70;;;29.80;60.40;;;;;;5074834;28;20028;-54
2022/06/25 08:03:43;;;;;;;23.55;7.80;;;29.70;61.30;;;;;;5074690;28;20394;-54
2022/06/25 08:06:10;;;;;;;27.42;8.48;;;29.80;63.90;;;;;;5074944;28;20454;-54
2022/06/25 08:08:36;;;;;;;18.98;6.85;;;29.80;62.70;;;;;;5074759;28;20520;-54
2022/06/25 08:11:02;;;;;;;21.48;7.13;;;30.10;63.10;;;;;;5074649;28;20028;-54
2022/06/25 08:13:28;;;;;;;20.65;7.28;;;30.20;61.10;;;;;;5074703;28;20081;-54
2022/06/25 08:15:54;;;;;;;18.70;7.35;;;30.80;59.70;;;;;;5074486;28;20111;-54
2022/06/25 08:18:20;;;;;;;25.95;7.88;;;31.10;58.10;;;;;;5074704;28;20029;-54
2022/06/25 08:20:46;;;;;;;26.23;8.52;;;31.40;57.00;;;;;;5074561;28;20028;-54
2022/06/25 08:23:12;;;;;;;23.13;8.15;;;31.60;56.20;;;;;;5074418;28;20035;-55
2022/06/25 08:25:38;;;;;;;23.70;8.45;;;32.00;55.60;;;;;;5074382;28;20062;-54
2022/06/25 08:28:04;;;;;;;22.38;7.95;;;32.30;55.40;;;;;;5074247;28;20096;-55
2022/06/25 08:30:30;;;;;;;25.08;7.88;;;32.40;55.20;;;;;;5074232;28;20466;-54
2022/06/25 08:32:56;;;;;;;18.45;7.20;;;31.50;55.50;;;;;;5074388;28;20024;-54
2022/06/25 08:35:22;;;;;;;21.38;7.50;;;32.20;55.00;;;;;;5074346;28;20046;-54
2022/06/25 08:37:49;;;;;;;25.15;7.38;;;32.70;51.60;;;;;;5074340;28;20024;-54
2022/06/25 08:40:20;;;;;;;21.33;6.55;;;32.20;51.40;;;;;;5074260;28;20082;-54
2022/06/25 08:42:49;;;;;;;38.00;9.15;;;32.50;49.00;;;;;;5074219;28;20025;-54
2022/06/25 08:45:17;;;;;;;19.13;6.03;;;32.70;50.80;;;;;;5074233;28;20041;-55
2022/06/25 08:47:50;;;;;;;20.00;6.32;;;32.70;48.00;;;;;;5074388;28;20043;-54
2022/06/25 08:50:21;;;;;;;18.15;6.68;;;32.50;47.60;;;;;;5074249;28;20036;-54
2022/06/25 08:52:49;;;;;;;21.52;6.18;;;32.50;50.50;;;;;;5074106;28;20028;-54
2022/06/25 08:55:26;;;;;;;23.63;7.07;;;32.50;49.90;;;;;;5074017;28;20040;-54
2022/06/25 08:57:52;;;;;;;30.00;6.82;;;32.60;48.20;;;;;;5089904;28;20430;-54
2022/06/25 09:00:18;;;;;;;22.83;6.20;;;32.60;49.10;;;;;;5074097;28;20031;-54
2022/06/25 09:02:44;;;;;;;19.63;5.78;;;32.50;49.80;;;;;;5074611;28;20028;-54
2022/06/25 09:05:10;;;;;;;16.77;4.93;;;32.20;48.40;;;;;;5073989;28;20065;-54
2022/06/25 09:07:36;;;;;;;24.42;6.65;;;32.40;50.50;;;;;;5074058;28;20039;-54
2022/06/25 09:10:03;;;;;;;27.48;7.07;;;32.70;48.60;;;;;;5074004;28;20032;-54
2022/06/25 09:12:29;;;;;;;16.20;5.60;;;32.90;50.00;;;;;;5074000;28;20029;-54
2022/06/25 09:14:55;;;;;;;16.75;5.97;;;32.70;47.40;;;;;;5073927;28;20025;-54
2022/06/25 09:17:21;;;;;;;26.25;6.30;;;33.20;50.60;;;;;;5074111;28;20029;-54
2022/06/25 09:19:50;;;;;;;22.08;6.68;;;33.50;48.40;;;;;;5073882;28;20028;-54
2022/06/25 09:22:21;;;;;;;21.83;5.82;;;34.00;46.80;;;;;;5073988;28;20100;-54
2022/06/25 09:24:57;;;;;;;18.65;5.78;;;33.90;45.90;;;;;;5073946;28;20035;-54
2022/06/25 09:27:37;;;;;;;22.45;5.85;;;33.80;50.20;;;;;;5073898;28;20154;-54
2022/06/25 09:30:09;;;;;;;18.60;6.07;;;33.90;45.90;;;;;;5074016;28;20024;-54
2022/06/25 09:32:45;;;;;;;23.35;5.95;;;34.30;46.50;;;;;;5073983;28;20032;-54
2022/06/25 09:35:15;;;;;;;23.20;6.50;;;34.10;43.70;;;;;;5073577;28;20078;-54
2022/06/25 09:37:42;;;;;;;21.60;7.25;;;34.10;45.50;;;;;;5073892;28;20028;-54
2022/06/25 09:40:09;;;;;;;23.00;6.18;;;33.90;45.70;;;;;;5074086;28;20024;-54
2022/06/25 09:42:35;;;;;;;19.63;6.65;;;33.70;46.20;;;;;;5077433;28;20020;-54
2022/06/25 09:45:07;;;;;;;15.65;6.18;;;33.50;47.60;;;;;;5077582;28;20036;-54
2022/06/25 09:47:38;;;;;;;17.23;5.25;;;33.10;48.90;;;;;;5077406;28;20378;-54
2022/06/25 09:50:16;;;;;;;20.88;6.13;;;32.90;49.10;;;;;;5077437;28;20068;-54
2022/06/25 09:52:59;;;;;;;21.63;6.80;;;33.00;45.60;;;;;;5077320;28;20037;-54
2022/06/25 09:55:31;;;;;;;22.38;5.93;;;33.10;48.90;;;;;;5077237;28;20037;-54
2022/06/25 09:58:00;;;;;;;15.63;5.72;;;33.00;49.30;;;;;;5077110;28;20110;-54
2022/06/25 10:00:26;;;;;;;21.85;6.85;;;33.10;47.40;;;;;;5077141;28;20504;-54
2022/06/25 10:02:54;;;;;;;16.88;6.10;;;33.40;46.90;;;;;;5077154;28;20028;-54
2022/06/25 10:05:38;;;;;;;20.05;5.43;;;33.50;45.40;;;;;;5077054;28;20032;-54
2022/06/25 10:08:11;;;;;;;18.02;6.18;;;33.50;46.60;;;;;;5077013;28;20031;-54
2022/06/25 10:10:45;;;;;;;15.52;4.85;;;33.30;45.30;;;;;;5076846;28;20099;-54
2022/06/25 10:13:13;;;;;;;22.67;5.55;;;33.40;47.60;;;;;;5076935;28;20433;-54
2022/06/25 10:15:39;;;;;;;26.92;6.95;;;33.30;44.80;;;;;;5076794;28;20071;-54
2022/06/25 10:18:09;;;;;;;29.63;5.80;;;32.90;45.70;;;;;;5076820;28;20048;-54
2022/06/25 10:20:35;;;;;;;19.30;6.05;;;33.00;46.90;;;;;;5076847;28;20028;-54
2022/06/25 10:23:03;;;;;;;24.10;5.28;;;33.20;47.00;;;;;;5076562;28;20035;-55
2022/06/25 10:25:30;;;;;;;16.30;4.90;;;33.30;45.90;;;;;;5076598;28;20120;-54
2022/06/25 10:28:06;;;;;;;18.48;5.30;;;33.40;45.40;;;;;;5076634;28;20058;-55
2022/06/25 10:30:53;;;;;;;23.70;6.25;;;33.70;49.00;;;;;;5076539;28;20040;-55
2022/06/25 10:33:24;;;;;;;14.73;5.68;;;33.80;46.00;;;;;;5076682;28;20037;-55
2022/06/25 10:35:52;;;;;;;22.35;5.70;;;33.70;48.20;;;;;;5076523;28;20222;-54
2022/06/25 10:38:23;;;;;;;19.48;6.45;;;33.60;47.60;;;;;;5076452;28;20029;-54
2022/06/25 10:43:49;;;;;;;24.85;5.93;;;32.90;50.10;;;;;;5076345;28;20036;-54
2022/06/25 10:46:36;;;;;;;22.25;6.13;;;32.30;52.10;;;;;;5076055;28;20089;-54
2022/06/25 10:49:08;;;;;;;23.35;6.40;;;32.50;57.30;;;;;;5076319;28;20024;-55
2022/06/25 10:51:44;;;;;;;24.85;6.10;;;32.90;54.50;;;;;;5076034;28;20032;-54
2022/06/25 10:54:22;;;;;;;24.95;6.00;;;32.50;54.20;;;;;;5075908;28;20329;-54
2022/06/25 10:56:58;;;;;;;20.90;6.82;;;32.60;58.70;;;;;;5075905;28;20086;-54
2022/06/25 10:59:37;;;;;;;20.00;5.63;;;32.70;55.20;;;;;;5076041;28;20036;-54
2022/06/25 11:02:08;;;;;;;24.02;7.15;;;32.70;52.60;;;;;;5076160;28;20031;-54
2022/06/25 11:04:35;;;;;;;28.45;5.45;;;32.60;55.70;;;;;;5075937;28;20052;-54
2022/06/25 11:07:07;;;;;;;32.17;6.88;;;32.30;59.60;;;;;;5075932;28;20408;-55
2022/06/25 11:09:33;;;;;;;24.35;6.75;;;32.30;53.40;;;;;;5075842;28;20028;-55
2022/06/25 11:11:59;;;;;;;21.98;5.90;;;32.70;52.90;;;;;;5075764;28;20071;-54
2022/06/25 11:14:25;;;;;;;25.08;6.13;;;33.00;51.80;;;;;;5075498;28;20460;-54
2022/06/25 11:16:53;;;;;;;22.63;7.03;;;32.90;51.40;;;;;;5075684;28;20056;-54
2022/06/25 11:19:21;;;;;;;22.38;6.97;;;33.30;53.30;;;;;;5075548;28;20024;-55
2022/06/25 11:21:48;;;;;;;25.40;6.82;;;33.60;51.60;;;;;;5075511;28;20391;-55
2022/06/25 11:24:25;;;;;;;20.17;6.22;;;33.50;48.70;;;;;;5075695;28;20422;-55
2022/06/25 11:29:47;;;;;;;20.58;5.55;;;33.80;48.20;;;;;;5075258;28;20101;-55
2022/06/25 11:32:22;;;;;;;18.58;5.20;;;33.70;47.50;;;;;;5075514;28;20035;-54
2022/06/25 11:34:52;;;;;;;21.27;5.45;;;33.50;45.70;;;;;;5075242;28;20043;-55
2022/06/25 11:37:19;;;;;;;24.25;6.20;;;33.90;46.90;;;;;;5075419;28;20025;-54
2022/06/25 11:39:46;;;;;;;19.27;6.22;;;34.20;45.70;;;;;;5075271;28;20051;-54
2022/06/25 11:42:13;;;;;;;25.55;6.10;;;34.50;45.20;;;;;;5074961;28;20750;-54
2022/06/25 11:44:39;;;;;;;24.40;6.18;;;35.00;42.90;;;;;;5075098;28;20035;-55
2022/06/25 11:47:05;;;;;;;20.00;5.53;;;34.80;41.30;;;;;;5075158;28;20040;-55
2022/06/25 11:49:42;;;;;;;23.08;6.05;;;34.30;43.60;;;;;;5074855;28;20036;-55
2022/06/25 11:52:10;;;;;;;16.75;5.25;;;34.20;45.20;;;;;;5075030;28;20077;-55
2022/06/25 11:54:37;;;;;;;19.45;5.93;;;34.10;45.70;;;;;;5074737;28;20040;-55
2022/06/25 11:57:05;;;;;;;24.13;5.63;;;34.30;44.60;;;;;;5074801;28;20371;-55
2022/06/25 11:59:36;;;;;;;22.42;6.05;;;34.20;43.50;;;;;;5075055;28;20112;-55
2022/06/25 12:02:07;;;;;;;29.45;6.20;;;34.10;44.00;;;;;;5074795;28;20024;-54
2022/06/25 12:05:03;;;;;;;21.25;5.30;;;34.00;44.50;;;;;;5074270;28;20104;-54
2022/06/25 12:07:31;;;;;;;15.80;4.55;;;33.60;46.70;;;;;;5074832;28;20060;-54
2022/06/25 12:10:03;;;;;;;22.65;5.38;;;33.40;47.20;;;;;;5074741;28;20119;-54
2022/06/25 12:12:29;;;;;;;31.23;5.78;;;33.90;47.90;;;;;;5074491;28;20032;-54
2022/06/25 12:14:59;;;;;;;26.45;6.30;;;34.00;46.30;;;;;;5074439;28;20504;-54
2022/06/25 12:17:33;;;;;;;19.95;5.38;;;34.00;48.10;;;;;;5074582;28;20032;-54
2022/06/25 12:20:10;;;;;;;19.27;4.60;;;33.80;47.70;;;;;;5074564;28;20034;-55
2022/06/25 12:22:41;;;;;;;18.60;4.93;;;33.80;45.60;;;;;;5074757;28;20025;-54
2022/06/25 12:25:10;;;;;;;30.38;6.43;;;34.20;47.10;;;;;;5074267;28;20044;-54
2022/06/25 12:27:46;;;;;;;21.02;5.50;;;34.30;46.70;;;;;;5074573;28;20112;-55
2022/06/25 12:30:13;;;;;;;20.25;4.57;;;34.40;45.40;;;;;;5074346;28;20036;-54
2022/06/25 12:32:41;;;;;;;15.50;5.47;;;34.00;48.20;;;;;;5074307;28;20356;-54
2022/06/25 12:35:24;;;;;;;24.33;6.07;;;33.20;45.80;;;;;;5074410;28;20143;-55
2022/06/25 12:38:10;;;;;;;22.13;5.95;;;33.40;45.20;;;;;;5074275;28;20035;-54
2022/06/25 12:40:45;;;;;;;22.15;5.53;;;33.10;44.70;;;;;;5074266;28;20024;-55
2022/06/25 12:43:12;;;;;;;19.55;5.38;;;33.90;46.10;;;;;;5074620;28;20086;-54
2022/06/25 12:45:42;;;;;;;22.30;5.07;;;33.80;44.60;;;;;;5074348;28;20394;-54
2022/06/25 12:48:09;;;;;;;17.33;5.00;;;33.90;49.70;;;;;;5074046;28;20405;-54
2022/06/25 12:50:36;;;;;;;21.55;4.10;;;34.20;47.70;;;;;;5074316;28;20123;-54
2022/06/25 12:53:14;;;;;;;20.52;5.43;;;34.00;43.60;;;;;;5073967;28;20032;-55
2022/06/25 12:55:45;;;;;;;19.08;4.80;;;33.90;45.00;;;;;;5074122;28;20089;-54
2022/06/25 12:58:15;;;;;;;17.73;4.95;;;33.90;45.70;;;;;;5074159;28;20031;-54